sensor_id;sensor_type;location;lat;lon;timestamp;temperature;humidity
21778;DHT22;11050;52.222;20.916;2024-03-25T00:01:38;4.10;99.90
21778;DHT22;11050;52.222;20.916;2024-03-25T00:04:03;4.10;99.90
21778;DHT22;11050;52.222;20.916;2024-03-25T00:06:29;4.10;99.90
21778;DHT22;11050;52.222;20.916;2024-03-25T00:09:02;4.20;99.90
21778;DHT22;11050;52.222;20.916;2024-03-25T00:11:28;4.20;99.90
21778;DHT22;11050;52.222;20.916;2024-03-25T00:13:54;4.30;99.90
21778;DHT22;11050;52.222;20.916;2024-03-25T00:16:20;4.30;99.90
21778;DHT22;11050;52.222;20.916;2024-03-25T00:18:46;4.30;99.90
21778;DHT22;11050;52.222;20.916;2024-03-25T00:21:12;4.30;99.90
21778;DHT22;11050;52.222;20.916;2024-03-25T00:23:37;4.30;99.90
21778;DHT22;11050;52.222;20.916;2024-03-25T00:26:03;4.30;99.90
21778;DHT22;11050;52.222;20.916;2024-03-25T00:28:29;4.30;99.90
21778;DHT22;11050;52.222;20.916;2024-03-25T00:30:55;4.30;99.90
21778;DHT22;11050;52.222;20.916;2024-03-25T00:33:20;4.30;99.90
21778;DHT22;11050;52.222;20.916;2024-03-25T00:35:47;4.30;99.90
21778;DHT22;11050;52.222;20.916;2024-03-25T00:38:13;4.20;99.90
21778;DHT22;11050;52.222;20.916;2024-03-25T00:40:39;4.20;99.90
21778;DHT22;11050;52.222;20.916;2024-03-25T00:43:04;4.20;99.90
21778;DHT22;11050;52.222;20.916;2024-03-25T00:45:30;4.20;99.90
21778;DHT22;11050;52.222;20.916;2024-03-25T00:47:56;4.20;99.90
21778;DHT22;11050;52.222;20.916;2024-03-25T00:50:23;4.20;99.90
21778;DHT22;11050;52.222;20.916;2024-03-25T00:52:49;4.20;99.90
21778;DHT22;11050;52.222;20.916;2024-03-25T00:55:15;4.20;99.90
21778;DHT22;11050;52.222;20.916;2024-03-25T00:57:40;4.20;99.90
21778;DHT22;11050;52.222;20.916;2024-03-25T01:00:07;4.20;99.90
21778;DHT22;11050;52.222;20.916;2024-03-25T01:02:33;4.10;99.90
21778;DHT22;11050;52.222;20.916;2024-03-25T01:04:59;4.20;99.90
21778;DHT22;11050;52.222;20.916;2024-03-25T01:07:25;4.20;99.90
21778;DHT22;11050;52.222;20.916;2024-03-25T01:09:51;4.20;99.90
21778;DHT22;11050;52.222;20.916;2024-03-25T01:12:17;4.10;99.90
21778;DHT22;11050;52.222;20.916;2024-03-25T01:14:42;4.10;99.90
21778;DHT22;11050;52.222;20.916;2024-03-25T01:17:08;4.10;99.90
21778;DHT22;11050;52.222;20.916;2024-03-25T01:19:34;4.20;99.90
21778;DHT22;11050;52.222;20.916;2024-03-25T01:21:59;4.10;99.90
21778;DHT22;11050;52.222;20.916;2024-03-25T01:24:25;4.10;99.90
21778;DHT22;11050;52.222;20.916;2024-03-25T01:26:51;4.10;99.90
21778;DHT22;11050;52.222;20.916;2024-03-25T01:29:17;4.10;99.90
21778;DHT22;11050;52.222;20.916;2024-03-25T01:31:44;4.00;99.90
21778;DHT22;11050;52.222;20.916;2024-03-25T01:34:09;4.00;99.90
21778;DHT22;11050;52.222;20.916;2024-03-25T01:36:36;4.00;99.90
21778;DHT22;11050;52.222;20.916;2024-03-25T01:39:02;4.10;99.90
21778;DHT22;11050;52.222;20.916;2024-03-25T01:41:30;4.00;99.90
21778;DHT22;11050;52.222;20.916;2024-03-25T01:43:56;4.00;99.90
21778;DHT22;11050;52.222;20.916;2024-03-25T01:46:21;4.00;99.90
21778;DHT22;11050;52.222;20.916;2024-03-25T01:48:48;4.00;99.90
21778;DHT22;11050;52.222;20.916;2024-03-25T01:51:17;4.00;99.90
21778;DHT22;11050;52.222;20.916;2024-03-25T01:53:46;3.90;99.90
21778;DHT22;11050;52.222;20.916;2024-03-25T01:56:14;3.90;99.90
21778;DHT22;11050;52.222;20.916;2024-03-25T01:58:41;3.90;99.90
21778;DHT22;11050;52.222;20.916;2024-03-25T02:01:08;3.90;99.90
21778;DHT22;11050;52.222;20.916;2024-03-25T02:03:39;3.80;99.90
21778;DHT22;11050;52.222;20.916;2024-03-25T02:06:11;3.90;99.90
21778;DHT22;11050;52.222;20.916;2024-03-25T02:08:40;3.80;99.90
21778;DHT22;11050;52.222;20.916;2024-03-25T02:11:07;3.70;99.90
21778;DHT22;11050;52.222;20.916;2024-03-25T02:13:35;3.70;99.90
21778;DHT22;11050;52.222;20.916;2024-03-25T02:16:02;3.60;99.90
21778;DHT22;11050;52.222;20.916;2024-03-25T02:18:28;3.60;99.90
21778;DHT22;11050;52.222;20.916;2024-03-25T02:20:56;3.50;99.90
21778;DHT22;11050;52.222;20.916;2024-03-25T02:23:22;3.40;99.90
21778;DHT22;11050;52.222;20.916;2024-03-25T02:25:52;3.40;99.90
21778;DHT22;11050;52.222;20.916;2024-03-25T02:28:19;3.40;99.90
21778;DHT22;11050;52.222;20.916;2024-03-25T02:30:45;3.30;99.90
21778;DHT22;11050;52.222;20.916;2024-03-25T02:33:11;3.30;99.90
21778;DHT22;11050;52.222;20.916;2024-03-25T02:35:38;3.30;99.90
21778;DHT22;11050;52.222;20.916;2024-03-25T02:38:06;3.20;99.90
21778;DHT22;11050;52.222;20.916;2024-03-25T02:40:33;3.20;99.90
21778;DHT22;11050;52.222;20.916;2024-03-25T02:43:00;3.20;99.90
21778;DHT22;11050;52.222;20.916;2024-03-25T02:45:26;3.10;99.90
21778;DHT22;11050;52.222;20.916;2024-03-25T02:47:52;3.10;99.90
21778;DHT22;11050;52.222;20.916;2024-03-25T02:50:18;3.10;99.90
21778;DHT22;11050;52.222;20.916;2024-03-25T02:52:44;3.20;99.90
21778;DHT22;11050;52.222;20.916;2024-03-25T02:55:10;3.20;99.90
21778;DHT22;11050;52.222;20.916;2024-03-25T02:57:36;3.30;99.90
21778;DHT22;11050;52.222;20.916;2024-03-25T03:00:01;3.30;99.90
21778;DHT22;11050;52.222;20.916;2024-03-25T03:02:27;3.30;99.90
21778;DHT22;11050;52.222;20.916;2024-03-25T03:04:53;3.30;99.90
21778;DHT22;11050;52.222;20.916;2024-03-25T03:07:19;3.40;99.90
21778;DHT22;11050;52.222;20.916;2024-03-25T03:09:44;3.40;99.90
21778;DHT22;11050;52.222;20.916;2024-03-25T03:12:10;3.40;99.90
21778;DHT22;11050;52.222;20.916;2024-03-25T03:14:36;3.40;99.90
21778;DHT22;11050;52.222;20.916;2024-03-25T03:17:01;3.40;99.90
21778;DHT22;11050;52.222;20.916;2024-03-25T03:19:30;3.40;99.90
21778;DHT22;11050;52.222;20.916;2024-03-25T03:21:56;3.40;99.90
21778;DHT22;11050;52.222;20.916;2024-03-25T03:24:23;3.30;99.90
21778;DHT22;11050;52.222;20.916;2024-03-25T03:26:49;3.30;99.90
21778;DHT22;11050;52.222;20.916;2024-03-25T03:29:15;3.30;99.90
21778;DHT22;11050;52.222;20.916;2024-03-25T03:31:41;3.30;99.90
21778;DHT22;11050;52.222;20.916;2024-03-25T03:34:08;3.40;99.90
21778;DHT22;11050;52.222;20.916;2024-03-25T03:36:34;3.30;99.90
21778;DHT22;11050;52.222;20.916;2024-03-25T03:39:00;3.30;99.90
21778;DHT22;11050;52.222;20.916;2024-03-25T03:41:26;3.30;99.90
21778;DHT22;11050;52.222;20.916;2024-03-25T03:43:51;3.30;99.90
21778;DHT22;11050;52.222;20.916;2024-03-25T03:46:17;3.40;99.90
21778;DHT22;11050;52.222;20.916;2024-03-25T03:48:43;3.40;99.90
21778;DHT22;11050;52.222;20.916;2024-03-25T03:51:09;3.30;99.90
21778;DHT22;11050;52.222;20.916;2024-03-25T03:53:35;3.30;99.90
21778;DHT22;11050;52.222;20.916;2024-03-25T03:56:04;3.30;99.90
21778;DHT22;11050;52.222;20.916;2024-03-25T03:58:31;3.30;99.90
21778;DHT22;11050;52.222;20.916;2024-03-25T04:00:57;3.30;99.90
21778;DHT22;11050;52.222;20.916;2024-03-25T04:03:23;3.30;99.90
21778;DHT22;11050;52.222;20.916;2024-03-25T04:05:49;3.30;99.90
21778;DHT22;11050;52.222;20.916;2024-03-25T04:08:16;3.30;99.90
21778;DHT22;11050;52.222;20.916;2024-03-25T04:10:43;3.30;99.90
21778;DHT22;11050;52.222;20.916;2024-03-25T04:13:10;3.30;99.90
21778;DHT22;11050;52.222;20.916;2024-03-25T04:15:40;3.30;99.90
21778;DHT22;11050;52.222;20.916;2024-03-25T04:18:07;3.30;99.90
21778;DHT22;11050;52.222;20.916;2024-03-25T04:20:38;3.30;99.90
21778;DHT22;11050;52.222;20.916;2024-03-25T04:23:05;3.30;99.90
21778;DHT22;11050;52.222;20.916;2024-03-25T04:25:32;3.20;99.90
21778;DHT22;11050;52.222;20.916;2024-03-25T04:27:59;3.30;99.90
21778;DHT22;11050;52.222;20.916;2024-03-25T04:30:25;3.20;99.90
21778;DHT22;11050;52.222;20.916;2024-03-25T04:32:51;3.20;99.90
21778;DHT22;11050;52.222;20.916;2024-03-25T04:35:17;3.20;99.90
21778;DHT22;11050;52.222;20.916;2024-03-25T04:37:43;3.20;99.90
21778;DHT22;11050;52.222;20.916;2024-03-25T04:40:10;3.20;99.90
21778;DHT22;11050;52.222;20.916;2024-03-25T04:42:40;3.20;99.90
21778;DHT22;11050;52.222;20.916;2024-03-25T04:45:06;3.20;99.90
21778;DHT22;11050;52.222;20.916;2024-03-25T04:47:32;3.20;99.90
21778;DHT22;11050;52.222;20.916;2024-03-25T04:49:59;3.20;99.90
21778;DHT22;11050;52.222;20.916;2024-03-25T04:52:24;3.20;99.90
21778;DHT22;11050;52.222;20.916;2024-03-25T04:54:51;3.20;99.90
21778;DHT22;11050;52.222;20.916;2024-03-25T04:57:17;3.20;99.90
21778;DHT22;11050;52.222;20.916;2024-03-25T04:59:43;3.20;99.90
21778;DHT22;11050;52.222;20.916;2024-03-25T05:02:09;3.20;99.90
21778;DHT22;11050;52.222;20.916;2024-03-25T05:04:34;3.20;99.90
21778;DHT22;11050;52.222;20.916;2024-03-25T05:07:00;3.30;99.90
21778;DHT22;11050;52.222;20.916;2024-03-25T05:09:26;3.30;99.90
21778;DHT22;11050;52.222;20.916;2024-03-25T05:11:52;3.30;99.90
21778;DHT22;11050;52.222;20.916;2024-03-25T05:14:18;3.30;99.90
21778;DHT22;11050;52.222;20.916;2024-03-25T05:16:44;3.40;99.90
21778;DHT22;11050;52.222;20.916;2024-03-25T05:19:09;3.40;99.90
21778;DHT22;11050;52.222;20.916;2024-03-25T05:21:35;3.40;99.90
21778;DHT22;11050;52.222;20.916;2024-03-25T05:24:01;3.50;99.90
21778;DHT22;11050;52.222;20.916;2024-03-25T05:26:26;3.60;99.90
21778;DHT22;11050;52.222;20.916;2024-03-25T05:28:56;3.60;99.90
21778;DHT22;11050;52.222;20.916;2024-03-25T05:31:22;3.70;99.90
21778;DHT22;11050;52.222;20.916;2024-03-25T05:33:49;3.80;99.90
21778;DHT22;11050;52.222;20.916;2024-03-25T05:36:15;3.80;99.90
21778;DHT22;11050;52.222;20.916;2024-03-25T05:38:41;3.90;99.90
21778;DHT22;11050;52.222;20.916;2024-03-25T05:41:08;4.00;99.90
21778;DHT22;11050;52.222;20.916;2024-03-25T05:43:35;4.10;99.90
21778;DHT22;11050;52.222;20.916;2024-03-25T05:46:01;4.10;99.90
21778;DHT22;11050;52.222;20.916;2024-03-25T05:48:27;4.20;99.90
21778;DHT22;11050;52.222;20.916;2024-03-25T05:51:04;4.40;99.90
21778;DHT22;11050;52.222;20.916;2024-03-25T05:53:31;4.40;99.90
21778;DHT22;11050;52.222;20.916;2024-03-25T05:55:57;4.50;99.90
21778;DHT22;11050;52.222;20.916;2024-03-25T05:58:29;4.60;99.90
21778;DHT22;11050;52.222;20.916;2024-03-25T06:00:55;4.60;99.90
21778;DHT22;11050;52.222;20.916;2024-03-25T06:03:21;4.70;99.90
21778;DHT22;11050;52.222;20.916;2024-03-25T06:05:48;4.80;99.90
21778;DHT22;11050;52.222;20.916;2024-03-25T06:08:14;4.80;99.90
21778;DHT22;11050;52.222;20.916;2024-03-25T06:10:52;4.90;99.90
21778;DHT22;11050;52.222;20.916;2024-03-25T06:13:19;4.90;99.90
21778;DHT22;11050;52.222;20.916;2024-03-25T06:15:45;5.00;99.90
21778;DHT22;11050;52.222;20.916;2024-03-25T06:18:11;5.10;99.90
21778;DHT22;11050;52.222;20.916;2024-03-25T06:20:37;5.20;99.90
21778;DHT22;11050;52.222;20.916;2024-03-25T06:23:03;5.30;99.90
21778;DHT22;11050;52.222;20.916;2024-03-25T06:25:30;5.30;99.90
21778;DHT22;11050;52.222;20.916;2024-03-25T06:27:56;5.40;99.90
21778;DHT22;11050;52.222;20.916;2024-03-25T06:30:21;5.50;99.90
21778;DHT22;11050;52.222;20.916;2024-03-25T06:33:06;5.50;99.90
21778;DHT22;11050;52.222;20.916;2024-03-25T06:35:51;5.60;99.90
21778;DHT22;11050;52.222;20.916;2024-03-25T06:38:17;5.60;99.90
21778;DHT22;11050;52.222;20.916;2024-03-25T06:40:45;5.60;99.90
21778;DHT22;11050;52.222;20.916;2024-03-25T06:43:11;5.60;99.90
21778;DHT22;11050;52.222;20.916;2024-03-25T06:45:37;5.60;99.90
21778;DHT22;11050;52.222;20.916;2024-03-25T06:48:02;5.60;99.90
21778;DHT22;11050;52.222;20.916;2024-03-25T06:50:28;5.60;99.90
21778;DHT22;11050;52.222;20.916;2024-03-25T06:52:54;5.60;99.90
21778;DHT22;11050;52.222;20.916;2024-03-25T06:55:20;5.60;99.90
21778;DHT22;11050;52.222;20.916;2024-03-25T06:57:51;5.60;99.90
21778;DHT22;11050;52.222;20.916;2024-03-25T07:00:17;5.60;99.90
21778;DHT22;11050;52.222;20.916;2024-03-25T07:02:43;5.70;99.90
21778;DHT22;11050;52.222;20.916;2024-03-25T07:05:09;5.70;99.90
21778;DHT22;11050;52.222;20.916;2024-03-25T07:07:35;5.80;99.90
21778;DHT22;11050;52.222;20.916;2024-03-25T07:10:01;5.80;99.90
21778;DHT22;11050;52.222;20.916;2024-03-25T07:12:28;5.80;99.90
21778;DHT22;11050;52.222;20.916;2024-03-25T07:14:54;5.90;99.90
21778;DHT22;11050;52.222;20.916;2024-03-25T07:17:20;5.90;99.90
21778;DHT22;11050;52.222;20.916;2024-03-25T07:19:47;6.00;99.90
21778;DHT22;11050;52.222;20.916;2024-03-25T07:22:13;6.10;99.90
21778;DHT22;11050;52.222;20.916;2024-03-25T07:24:39;6.20;99.90
21778;DHT22;11050;52.222;20.916;2024-03-25T07:27:05;6.30;99.90
21778;DHT22;11050;52.222;20.916;2024-03-25T07:29:31;6.40;99.90
21778;DHT22;11050;52.222;20.916;2024-03-25T07:31:57;6.50;99.90
21778;DHT22;11050;52.222;20.916;2024-03-25T07:34:23;6.60;99.90
21778;DHT22;11050;52.222;20.916;2024-03-25T07:36:48;6.70;99.90
21778;DHT22;11050;52.222;20.916;2024-03-25T07:39:14;6.80;99.90
21778;DHT22;11050;52.222;20.916;2024-03-25T07:41:40;6.90;99.90
21778;DHT22;11050;52.222;20.916;2024-03-25T07:44:06;7.10;99.90
21778;DHT22;11050;52.222;20.916;2024-03-25T07:46:32;7.20;99.90
21778;DHT22;11050;52.222;20.916;2024-03-25T07:48:58;7.40;99.90
21778;DHT22;11050;52.222;20.916;2024-03-25T07:51:23;7.50;99.90
21778;DHT22;11050;52.222;20.916;2024-03-25T07:53:49;7.60;99.90
21778;DHT22;11050;52.222;20.916;2024-03-25T07:56:15;7.80;99.90
21778;DHT22;11050;52.222;20.916;2024-03-25T07:58:41;7.90;99.90
21778;DHT22;11050;52.222;20.916;2024-03-25T08:01:07;8.10;99.90
21778;DHT22;11050;52.222;20.916;2024-03-25T08:03:33;8.30;99.90
21778;DHT22;11050;52.222;20.916;2024-03-25T08:05:59;8.40;99.90
21778;DHT22;11050;52.222;20.916;2024-03-25T08:08:25;8.50;99.90
21778;DHT22;11050;52.222;20.916;2024-03-25T08:10:51;8.50;99.90
21778;DHT22;11050;52.222;20.916;2024-03-25T08:13:18;8.60;99.90
21778;DHT22;11050;52.222;20.916;2024-03-25T08:15:47;8.60;99.90
21778;DHT22;11050;52.222;20.916;2024-03-25T08:18:13;8.70;99.90
21778;DHT22;11050;52.222;20.916;2024-03-25T08:20:39;8.70;99.90
21778;DHT22;11050;52.222;20.916;2024-03-25T08:23:05;8.80;99.90
21778;DHT22;11050;52.222;20.916;2024-03-25T08:25:31;8.80;99.90
21778;DHT22;11050;52.222;20.916;2024-03-25T08:27:57;8.80;99.90
21778;DHT22;11050;52.222;20.916;2024-03-25T08:30:24;8.70;99.90
21778;DHT22;11050;52.222;20.916;2024-03-25T08:32:50;8.70;99.90
21778;DHT22;11050;52.222;20.916;2024-03-25T08:35:16;8.70;99.90
21778;DHT22;11050;52.222;20.916;2024-03-25T08:37:42;8.80;99.90
21778;DHT22;11050;52.222;20.916;2024-03-25T08:40:09;8.90;99.90
21778;DHT22;11050;52.222;20.916;2024-03-25T08:42:35;9.00;99.90
21778;DHT22;11050;52.222;20.916;2024-03-25T08:45:01;9.00;99.90
21778;DHT22;11050;52.222;20.916;2024-03-25T08:47:26;9.10;99.90
21778;DHT22;11050;52.222;20.916;2024-03-25T08:49:52;9.20;99.90
21778;DHT22;11050;52.222;20.916;2024-03-25T08:52:18;9.30;99.90
21778;DHT22;11050;52.222;20.916;2024-03-25T08:54:44;9.30;99.90
21778;DHT22;11050;52.222;20.916;2024-03-25T08:57:09;9.30;99.90
21778;DHT22;11050;52.222;20.916;2024-03-25T08:59:35;9.40;99.90
21778;DHT22;11050;52.222;20.916;2024-03-25T09:02:01;9.50;99.90
21778;DHT22;11050;52.222;20.916;2024-03-25T09:04:27;9.50;99.90
21778;DHT22;11050;52.222;20.916;2024-03-25T09:06:53;9.70;99.90
21778;DHT22;11050;52.222;20.916;2024-03-25T09:09:18;9.70;99.90
21778;DHT22;11050;52.222;20.916;2024-03-25T09:12:02;9.80;99.90
21778;DHT22;11050;52.222;20.916;2024-03-25T09:14:28;9.80;99.90
21778;DHT22;11050;52.222;20.916;2024-03-25T09:16:54;9.90;99.90
21778;DHT22;11050;52.222;20.916;2024-03-25T09:19:20;9.90;99.90
21778;DHT22;11050;52.222;20.916;2024-03-25T09:21:45;10.00;99.90
21778;DHT22;11050;52.222;20.916;2024-03-25T09:24:11;10.00;99.90
21778;DHT22;11050;52.222;20.916;2024-03-25T09:26:37;10.10;99.90
21778;DHT22;11050;52.222;20.916;2024-03-25T09:29:02;10.20;99.90
21778;DHT22;11050;52.222;20.916;2024-03-25T09:31:28;10.30;99.90
21778;DHT22;11050;52.222;20.916;2024-03-25T09:33:54;10.30;99.90
21778;DHT22;11050;52.222;20.916;2024-03-25T09:36:20;10.30;99.90
21778;DHT22;11050;52.222;20.916;2024-03-25T09:38:46;10.40;99.90
21778;DHT22;11050;52.222;20.916;2024-03-25T09:41:11;10.40;99.90
21778;DHT22;11050;52.222;20.916;2024-03-25T09:43:44;10.40;99.90
21778;DHT22;11050;52.222;20.916;2024-03-25T09:46:13;10.40;99.90
21778;DHT22;11050;52.222;20.916;2024-03-25T09:48:41;10.30;99.90
21778;DHT22;11050;52.222;20.916;2024-03-25T09:51:07;10.30;99.90
21778;DHT22;11050;52.222;20.916;2024-03-25T09:53:34;10.30;99.90
21778;DHT22;11050;52.222;20.916;2024-03-25T09:56:01;10.30;99.90
21778;DHT22;11050;52.222;20.916;2024-03-25T09:58:27;10.30;99.90
21778;DHT22;11050;52.222;20.916;2024-03-25T10:00:55;10.30;99.90
21778;DHT22;11050;52.222;20.916;2024-03-25T10:03:23;10.30;99.90
21778;DHT22;11050;52.222;20.916;2024-03-25T10:05:49;10.40;99.90
21778;DHT22;11050;52.222;20.916;2024-03-25T10:08:20;10.40;99.90
21778;DHT22;11050;52.222;20.916;2024-03-25T10:10:46;10.60;99.90
21778;DHT22;11050;52.222;20.916;2024-03-25T10:13:12;10.70;97.80
21778;DHT22;11050;52.222;20.916;2024-03-25T10:15:38;10.80;95.80
21778;DHT22;11050;52.222;20.916;2024-03-25T10:18:04;11.00;94.50
21778;DHT22;11050;52.222;20.916;2024-03-25T10:20:30;11.00;93.30
21778;DHT22;11050;52.222;20.916;2024-03-25T10:22:55;11.00;92.90
21778;DHT22;11050;52.222;20.916;2024-03-25T10:30:20;11.20;92.20
21778;DHT22;11050;52.222;20.916;2024-03-25T10:32:46;11.30;91.80
21778;DHT22;11050;52.222;20.916;2024-03-25T10:35:28;11.40;91.00
21778;DHT22;11050;52.222;20.916;2024-03-25T10:38:03;11.40;90.80
21778;DHT22;11050;52.222;20.916;2024-03-25T10:40:32;11.50;90.70
21778;DHT22;11050;52.222;20.916;2024-03-25T10:43:07;11.60;90.60
21778;DHT22;11050;52.222;20.916;2024-03-25T10:45:35;11.60;88.00
21778;DHT22;11050;52.222;20.916;2024-03-25T10:48:25;11.70;85.30
21778;DHT22;11050;52.222;20.916;2024-03-25T10:50:56;11.60;84.70
21778;DHT22;11050;52.222;20.916;2024-03-25T10:53:27;11.50;87.20
21778;DHT22;11050;52.222;20.916;2024-03-25T10:55:55;11.40;87.90
21778;DHT22;11050;52.222;20.916;2024-03-25T10:58:22;11.20;89.10
21778;DHT22;11050;52.222;20.916;2024-03-25T11:00:50;11.10;89.40
21778;DHT22;11050;52.222;20.916;2024-03-25T11:03:20;11.00;90.10
21778;DHT22;11050;52.222;20.916;2024-03-25T11:05:47;10.90;90.40
21778;DHT22;11050;52.222;20.916;2024-03-25T11:08:13;10.90;90.30
21778;DHT22;11050;52.222;20.916;2024-03-25T11:10:50;10.80;90.40
21778;DHT22;11050;52.222;20.916;2024-03-25T11:13:19;10.70;90.40
21778;DHT22;11050;52.222;20.916;2024-03-25T11:15:47;10.70;90.70
21778;DHT22;11050;52.222;20.916;2024-03-25T11:18:16;10.70;90.80
21778;DHT22;11050;52.222;20.916;2024-03-25T11:20:43;10.80;90.70
21778;DHT22;11050;52.222;20.916;2024-03-25T11:23:11;10.80;90.00
21778;DHT22;11050;52.222;20.916;2024-03-25T11:25:39;10.90;87.50
21778;DHT22;11050;52.222;20.916;2024-03-25T11:28:07;10.90;87.30
21778;DHT22;11050;52.222;20.916;2024-03-25T11:30:36;10.90;87.60
21778;DHT22;11050;52.222;20.916;2024-03-25T11:33:03;10.90;87.10
21778;DHT22;11050;52.222;20.916;2024-03-25T11:35:38;10.90;87.60
21778;DHT22;11050;52.222;20.916;2024-03-25T11:38:04;11.00;88.10
21778;DHT22;11050;52.222;20.916;2024-03-25T11:40:30;11.00;87.10
21778;DHT22;11050;52.222;20.916;2024-03-25T11:42:56;11.10;86.50
21778;DHT22;11050;52.222;20.916;2024-03-25T11:45:23;11.20;86.00
21778;DHT22;11050;52.222;20.916;2024-03-25T11:47:50;11.30;85.80
21778;DHT22;11050;52.222;20.916;2024-03-25T11:50:17;11.30;85.30
21778;DHT22;11050;52.222;20.916;2024-03-25T11:52:45;11.40;81.10
21778;DHT22;11050;52.222;20.916;2024-03-25T11:55:16;11.50;79.20
21778;DHT22;11050;52.222;20.916;2024-03-25T11:57:43;11.80;78.20
21778;DHT22;11050;52.222;20.916;2024-03-25T12:00:09;12.20;79.00
21778;DHT22;11050;52.222;20.916;2024-03-25T12:02:42;12.60;78.20
21778;DHT22;11050;52.222;20.916;2024-03-25T12:05:10;12.90;75.50
21778;DHT22;11050;52.222;20.916;2024-03-25T12:07:36;12.90;74.20
21778;DHT22;11050;52.222;20.916;2024-03-25T12:10:02;12.80;73.90
21778;DHT22;11050;52.222;20.916;2024-03-25T12:12:47;12.70;74.80
21778;DHT22;11050;52.222;20.916;2024-03-25T12:15:13;12.50;75.70
21778;DHT22;11050;52.222;20.916;2024-03-25T12:17:39;12.30;76.60
21778;DHT22;11050;52.222;20.916;2024-03-25T12:20:09;12.20;77.00
21778;DHT22;11050;52.222;20.916;2024-03-25T12:22:36;12.00;77.70
21778;DHT22;11050;52.222;20.916;2024-03-25T12:25:06;11.90;78.70
21778;DHT22;11050;52.222;20.916;2024-03-25T12:27:35;11.80;79.70
21778;DHT22;11050;52.222;20.916;2024-03-25T12:30:07;11.80;80.90
21778;DHT22;11050;52.222;20.916;2024-03-25T12:32:41;11.90;81.70
21778;DHT22;11050;52.222;20.916;2024-03-25T12:35:12;12.00;82.20
21778;DHT22;11050;52.222;20.916;2024-03-25T12:37:42;12.20;80.70
21778;DHT22;11050;52.222;20.916;2024-03-25T12:40:11;12.20;82.60
21778;DHT22;11050;52.222;20.916;2024-03-25T12:42:38;12.30;84.40
21778;DHT22;11050;52.222;20.916;2024-03-25T12:45:05;12.10;87.20
21778;DHT22;11050;52.222;20.916;2024-03-25T12:47:32;11.80;89.90
21778;DHT22;11050;52.222;20.916;2024-03-25T12:49:58;11.60;91.00
21778;DHT22;11050;52.222;20.916;2024-03-25T12:52:25;11.40;91.90
21778;DHT22;11050;52.222;20.916;2024-03-25T12:54:51;11.20;92.50
21778;DHT22;11050;52.222;20.916;2024-03-25T12:57:17;11.30;92.60
21778;DHT22;11050;52.222;20.916;2024-03-25T12:59:44;11.10;92.80
21778;DHT22;11050;52.222;20.916;2024-03-25T13:02:12;11.00;93.30
21778;DHT22;11050;52.222;20.916;2024-03-25T13:04:38;10.90;93.90
21778;DHT22;11050;52.222;20.916;2024-03-25T13:07:06;10.80;94.30
21778;DHT22;11050;52.222;20.916;2024-03-25T13:09:32;10.80;94.60
21778;DHT22;11050;52.222;20.916;2024-03-25T13:11:58;10.80;94.40
21778;DHT22;11050;52.222;20.916;2024-03-25T13:14:25;10.80;93.70
21778;DHT22;11050;52.222;20.916;2024-03-25T13:16:51;10.90;93.10
21778;DHT22;11050;52.222;20.916;2024-03-25T13:19:17;10.90;92.50
21778;DHT22;11050;52.222;20.916;2024-03-25T13:21:43;10.90;92.70
21778;DHT22;11050;52.222;20.916;2024-03-25T13:24:09;10.90;93.00
21778;DHT22;11050;52.222;20.916;2024-03-25T13:26:35;11.00;93.10
21778;DHT22;11050;52.222;20.916;2024-03-25T13:29:01;11.20;92.80
21778;DHT22;11050;52.222;20.916;2024-03-25T13:31:28;11.30;92.70
21778;DHT22;11050;52.222;20.916;2024-03-25T13:33:54;11.50;92.80
21778;DHT22;11050;52.222;20.916;2024-03-25T13:36:19;11.80;93.30
21778;DHT22;11050;52.222;20.916;2024-03-25T13:38:45;12.40;92.60
21778;DHT22;11050;52.222;20.916;2024-03-25T13:41:11;12.90;90.70
21778;DHT22;11050;52.222;20.916;2024-03-25T13:43:42;13.20;87.20
21778;DHT22;11050;52.222;20.916;2024-03-25T13:46:08;13.20;85.80
21778;DHT22;11050;52.222;20.916;2024-03-25T13:48:34;13.10;85.70
21778;DHT22;11050;52.222;20.916;2024-03-25T13:51:00;13.00;85.90
21778;DHT22;11050;52.222;20.916;2024-03-25T13:53:26;12.80;86.00
21778;DHT22;11050;52.222;20.916;2024-03-25T13:55:52;12.60;87.00
21778;DHT22;11050;52.222;20.916;2024-03-25T13:58:17;12.40;87.20
21778;DHT22;11050;52.222;20.916;2024-03-25T14:00:43;12.20;87.70
21778;DHT22;11050;52.222;20.916;2024-03-25T14:03:09;12.00;88.50
21778;DHT22;11050;52.222;20.916;2024-03-25T14:05:34;11.70;89.80
21778;DHT22;11050;52.222;20.916;2024-03-25T14:08:01;11.60;90.20
21778;DHT22;11050;52.222;20.916;2024-03-25T14:10:27;11.50;90.90
21778;DHT22;11050;52.222;20.916;2024-03-25T14:12:53;11.40;91.20
21778;DHT22;11050;52.222;20.916;2024-03-25T14:15:18;11.30;91.20
21778;DHT22;11050;52.222;20.916;2024-03-25T14:17:44;11.20;91.60
21778;DHT22;11050;52.222;20.916;2024-03-25T14:20:11;11.00;92.30
21778;DHT22;11050;52.222;20.916;2024-03-25T14:22:36;11.00;92.20
21778;DHT22;11050;52.222;20.916;2024-03-25T14:25:02;10.90;92.20
21778;DHT22;11050;52.222;20.916;2024-03-25T14:27:28;10.80;92.00
21778;DHT22;11050;52.222;20.916;2024-03-25T14:29:54;10.70;92.60
21778;DHT22;11050;52.222;20.916;2024-03-25T14:32:20;10.80;92.50
21778;DHT22;11050;52.222;20.916;2024-03-25T14:34:47;11.00;92.50
21778;DHT22;11050;52.222;20.916;2024-03-25T14:37:14;11.50;92.20
21778;DHT22;11050;52.222;20.916;2024-03-25T14:39:40;12.20;90.10
21778;DHT22;11050;52.222;20.916;2024-03-25T14:42:08;12.80;86.90
21778;DHT22;11050;52.222;20.916;2024-03-25T14:44:37;13.20;81.70
21778;DHT22;11050;52.222;20.916;2024-03-25T14:47:04;13.40;80.10
21778;DHT22;11050;52.222;20.916;2024-03-25T14:49:30;13.60;79.50
21778;DHT22;11050;52.222;20.916;2024-03-25T14:51:57;13.90;78.30
21778;DHT22;11050;52.222;20.916;2024-03-25T14:54:23;14.30;77.30
21778;DHT22;11050;52.222;20.916;2024-03-25T14:56:49;14.70;76.50
21778;DHT22;11050;52.222;20.916;2024-03-25T14:59:15;15.30;75.10
21778;DHT22;11050;52.222;20.916;2024-03-25T15:01:40;15.80;73.00
21778;DHT22;11050;52.222;20.916;2024-03-25T15:04:06;16.30;69.80
21778;DHT22;11050;52.222;20.916;2024-03-25T15:06:33;16.80;67.00
21778;DHT22;11050;52.222;20.916;2024-03-25T15:08:59;17.20;63.30
21778;DHT22;11050;52.222;20.916;2024-03-25T15:11:26;17.60;62.10
21778;DHT22;11050;52.222;20.916;2024-03-25T15:13:52;17.70;60.40
21778;DHT22;11050;52.222;20.916;2024-03-25T15:16:19;18.10;58.00
21778;DHT22;11050;52.222;20.916;2024-03-25T15:18:44;18.20;56.20
21778;DHT22;11050;52.222;20.916;2024-03-25T15:21:10;18.30;56.60
21778;DHT22;11050;52.222;20.916;2024-03-25T15:23:36;18.00;55.00
21778;DHT22;11050;52.222;20.916;2024-03-25T15:26:02;17.90;55.10
21778;DHT22;11050;52.222;20.916;2024-03-25T15:28:28;18.00;54.40